createdAt,value
2018-07-16T00:00:27.096Z,991.83
2018-07-16T00:01:27.094Z,991.80
2018-07-16T00:02:27.087Z,991.83
2018-07-16T00:03:48.142Z,991.85
2018-07-16T00:04:27.077Z,991.82
2018-07-16T00:05:27.076Z,991.85
2018-07-16T00:06:27.069Z,991.83
2018-07-16T00:07:27.065Z,991.86
2018-07-16T00:08:27.061Z,991.83
2018-07-16T00:09:48.067Z,991.83
2018-07-16T00:10:27.054Z,991.81
2018-07-16T00:11:27.049Z,991.82
2018-07-16T00:12:27.094Z,991.82
2018-07-16T00:13:27.040Z,991.77
2018-07-16T00:14:27.038Z,991.77
2018-07-16T00:15:48.037Z,991.77
2018-07-16T00:16:27.026Z,991.75
2018-07-16T00:17:27.027Z,991.74
2018-07-16T00:18:27.019Z,991.75
2018-07-16T00:19:27.016Z,991.74
2018-07-16T00:20:27.009Z,991.73
2018-07-16T00:21:48.013Z,991.71
2018-07-16T00:22:27.001Z,991.71
2018-07-16T00:23:26.996Z,991.72
2018-07-16T00:24:26.991Z,991.72
2018-07-16T00:25:26.988Z,991.65
2018-07-16T00:26:26.984Z,991.66
2018-07-16T00:27:47.986Z,991.69
2018-07-16T00:28:26.976Z,991.63
2018-07-16T00:29:26.970Z,991.63
2018-07-16T00:30:26.966Z,991.64
2018-07-16T00:31:26.963Z,991.60
2018-07-16T00:32:26.959Z,991.65
2018-07-16T00:33:47.960Z,991.61
2018-07-16T00:34:26.948Z,991.60
2018-07-16T00:35:26.944Z,991.55
2018-07-16T00:36:26.938Z,991.60
2018-07-16T00:37:26.938Z,991.53
2018-07-16T00:38:26.931Z,991.55
2018-07-16T00:39:47.932Z,991.52
2018-07-16T00:40:26.922Z,991.50
2018-07-16T00:41:26.917Z,991.52
2018-07-16T00:42:26.916Z,991.48
2018-07-16T00:43:26.906Z,991.49
2018-07-16T00:44:26.969Z,991.46
2018-07-16T00:45:47.908Z,991.46
2018-07-16T00:46:26.894Z,991.39
2018-07-16T00:47:26.891Z,991.42
2018-07-16T00:48:26.887Z,991.41
2018-07-16T00:49:26.883Z,991.39
2018-07-16T00:50:26.880Z,991.39
2018-07-16T00:51:47.878Z,991.40
2018-07-16T00:52:26.868Z,991.40
2018-07-16T00:53:26.865Z,991.38
2018-07-16T00:54:26.861Z,991.39
2018-07-16T00:55:26.859Z,991.39
2018-07-16T00:56:26.933Z,991.37
2018-07-16T00:57:47.856Z,991.37
2018-07-16T00:58:26.844Z,991.35
2018-07-16T00:59:26.838Z,991.36
2018-07-16T01:00:26.832Z,991.36
2018-07-16T01:01:26.829Z,991.33
2018-07-16T01:02:26.825Z,991.35
2018-07-16T01:03:47.827Z,991.35
2018-07-16T01:04:26.816Z,991.35
2018-07-16T01:05:26.814Z,991.36
2018-07-16T01:06:26.807Z,991.31
2018-07-16T01:07:26.802Z,991.34
2018-07-16T01:08:26.798Z,991.37
2018-07-16T01:09:47.801Z,991.31
2018-07-16T01:10:26.790Z,991.32
2018-07-16T01:11:26.784Z,991.31
2018-07-16T01:12:26.778Z,991.30
2018-07-16T01:13:26.775Z,991.32
2018-07-16T01:14:26.772Z,991.27
2018-07-16T01:15:47.771Z,991.28
2018-07-16T01:16:26.763Z,991.26
2018-07-16T01:17:26.787Z,991.26
2018-07-16T01:18:26.754Z,991.26
2018-07-16T01:19:26.748Z,991.23
2018-07-16T01:20:26.744Z,991.21
2018-07-16T01:21:47.749Z,991.22
2018-07-16T01:22:26.739Z,991.21
2018-07-16T01:23:26.730Z,991.21
2018-07-16T01:24:26.727Z,991.26
2018-07-16T01:25:26.722Z,991.22
2018-07-16T01:26:26.718Z,991.20
2018-07-16T01:27:47.720Z,991.25
2018-07-16T01:28:26.708Z,991.26
2018-07-16T01:29:26.704Z,991.23
2018-07-16T01:30:26.700Z,991.23
2018-07-16T01:31:26.697Z,991.24
2018-07-16T01:32:26.691Z,991.24
2018-07-16T01:33:47.693Z,991.24
2018-07-16T01:34:26.682Z,991.25
2018-07-16T01:35:26.675Z,991.28
2018-07-16T01:36:26.674Z,991.27
2018-07-16T01:37:26.672Z,991.28
2018-07-16T01:38:26.665Z,991.31
2018-07-16T01:39:47.667Z,991.33
2018-07-16T01:40:26.655Z,991.32
2018-07-16T01:41:26.654Z,991.32
2018-07-16T01:42:26.646Z,991.34
2018-07-16T01:43:26.641Z,991.34
2018-07-16T01:44:26.640Z,991.31
2018-07-16T01:45:47.640Z,991.29
2018-07-16T01:46:26.628Z,991.31
2018-07-16T01:47:26.625Z,991.28
2018-07-16T01:48:26.619Z,991.28
2018-07-16T01:49:26.615Z,991.27
2018-07-16T01:50:26.611Z,991.28
2018-07-16T01:51:47.614Z,991.25
2018-07-16T01:52:26.599Z,991.20
2018-07-16T01:53:26.596Z,991.21
2018-07-16T01:54:26.591Z,991.21
2018-07-16T01:55:26.588Z,991.19
2018-07-16T01:56:26.583Z,991.18
2018-07-16T01:57:47.588Z,991.19
2018-07-16T01:58:26.575Z,991.17
2018-07-16T01:59:26.571Z,991.16
2018-07-16T02:00:26.565Z,991.20
2018-07-16T02:01:26.560Z,991.19
2018-07-16T02:02:26.559Z,991.17
2018-07-16T02:03:47.558Z,991.17
2018-07-16T02:04:26.552Z,991.20
2018-07-16T02:05:26.541Z,991.20
2018-07-16T02:06:26.538Z,991.20
2018-07-16T02:07:26.533Z,991.22
2018-07-16T02:08:26.529Z,991.21
2018-07-16T02:09:47.534Z,991.22
2018-07-16T02:10:26.520Z,991.19
2018-07-16T02:11:26.514Z,991.19
2018-07-16T02:12:26.511Z,991.22
2018-07-16T02:13:26.505Z,991.19
2018-07-16T02:14:26.502Z,991.19
2018-07-16T02:15:47.504Z,991.21
2018-07-16T02:16:26.496Z,991.18
2018-07-16T02:17:26.487Z,991.25
2018-07-16T02:18:26.484Z,991.21
2018-07-16T02:19:26.476Z,991.20
2018-07-16T02:20:26.473Z,991.26
2018-07-16T02:21:47.476Z,991.22
2018-07-16T02:22:26.464Z,991.23
2018-07-16T02:23:26.464Z,991.19
2018-07-16T02:24:26.460Z,991.24
2018-07-16T02:25:26.451Z,991.19
2018-07-16T02:26:26.448Z,991.25
2018-07-16T02:27:47.450Z,991.23
2018-07-16T02:28:26.442Z,991.20
2018-07-16T02:29:26.433Z,991.21
2018-07-16T02:30:26.431Z,991.22
2018-07-16T02:31:26.423Z,991.30
2018-07-16T02:32:26.419Z,991.24
2018-07-16T02:33:47.428Z,991.22
2018-07-16T02:34:26.411Z,991.23
2018-07-16T02:35:26.405Z,991.21
2018-07-16T02:36:26.404Z,991.22
2018-07-16T02:37:26.398Z,991.22
2018-07-16T02:38:26.399Z,991.25
2018-07-16T02:39:47.457Z,991.26
2018-07-16T02:40:26.385Z,991.25
2018-07-16T02:41:26.379Z,991.28
2018-07-16T02:42:26.376Z,991.27
2018-07-16T02:43:26.369Z,991.27
2018-07-16T02:44:26.365Z,991.22
2018-07-16T02:45:47.371Z,991.25
2018-07-16T02:46:26.356Z,991.25
2018-07-16T02:47:26.351Z,991.20
2018-07-16T02:48:26.347Z,991.23
2018-07-16T02:49:26.343Z,991.22
2018-07-16T02:50:26.336Z,991.19
2018-07-16T02:51:47.368Z,991.19
2018-07-16T02:52:26.329Z,991.16
2018-07-16T02:53:26.324Z,991.16
2018-07-16T02:54:26.322Z,991.19
2018-07-16T02:55:26.314Z,991.19
2018-07-16T02:56:26.311Z,991.20
2018-07-16T02:57:47.316Z,991.12
2018-07-16T02:58:26.301Z,991.12
2018-07-16T02:59:26.298Z,991.16
2018-07-16T03:00:26.290Z,991.15
2018-07-16T03:01:26.287Z,991.17
2018-07-16T03:02:26.282Z,991.18
2018-07-16T03:03:47.304Z,991.18
2018-07-16T03:04:26.272Z,991.19
2018-07-16T03:05:26.269Z,991.17
2018-07-16T03:06:26.265Z,991.14
2018-07-16T03:07:26.259Z,991.13
2018-07-16T03:08:26.256Z,991.19
2018-07-16T03:09:47.300Z,991.17
2018-07-16T03:10:26.263Z,991.20
2018-07-16T03:11:26.238Z,991.22
2018-07-16T03:12:26.236Z,991.19
2018-07-16T03:13:26.230Z,991.15
2018-07-16T03:14:26.225Z,991.18
2018-07-16T03:15:47.232Z,991.20
2018-07-16T03:16:26.217Z,991.19
2018-07-16T03:17:26.213Z,991.23
2018-07-16T03:18:26.220Z,991.18
2018-07-16T03:19:26.202Z,991.17
2018-07-16T03:20:26.197Z,991.15
2018-07-16T03:21:47.206Z,991.11
2018-07-16T03:22:26.190Z,991.12
2018-07-16T03:23:26.187Z,991.14
2018-07-16T03:24:26.179Z,991.06
2018-07-16T03:25:26.174Z,991.09
2018-07-16T03:26:26.173Z,991.08
2018-07-16T03:27:47.172Z,991.15
2018-07-16T03:28:26.160Z,991.11
2018-07-16T03:29:26.158Z,991.14
2018-07-16T03:30:26.156Z,991.10
2018-07-16T03:31:26.146Z,991.11
2018-07-16T03:32:26.142Z,991.11
2018-07-16T03:33:47.144Z,991.11
2018-07-16T03:34:26.135Z,991.07
2018-07-16T03:35:26.127Z,991.04
2018-07-16T03:36:26.123Z,991.04
2018-07-16T03:37:26.119Z,991.02
2018-07-16T03:38:26.113Z,990.98
2018-07-16T03:39:47.116Z,991.03
2018-07-16T03:40:26.103Z,991.06
2018-07-16T03:41:26.099Z,991.03
2018-07-16T03:42:26.093Z,990.99
2018-07-16T03:43:26.088Z,991.05
2018-07-16T03:44:26.082Z,991.02
2018-07-16T03:45:47.085Z,991.02
2018-07-16T03:46:26.073Z,991.00
2018-07-16T03:47:26.067Z,990.98
2018-07-16T03:48:26.061Z,990.99
2018-07-16T03:49:26.056Z,990.97
2018-07-16T03:50:26.051Z,990.96
2018-07-16T03:51:47.051Z,990.97
2018-07-16T03:52:26.039Z,990.93
2018-07-16T03:53:26.035Z,990.96
2018-07-16T03:54:26.131Z,990.95
2018-07-16T03:55:26.023Z,990.94
2018-07-16T03:56:26.017Z,990.96
2018-07-16T03:57:47.028Z,990.96
2018-07-16T03:58:26.007Z,990.96
2018-07-16T03:59:26.002Z,990.99
2018-07-16T04:00:25.994Z,990.96
2018-07-16T04:01:25.990Z,990.96
2018-07-16T04:02:25.982Z,990.94
2018-07-16T04:03:46.981Z,990.94
2018-07-16T04:04:25.970Z,990.98
2018-07-16T04:05:25.964Z,990.94
2018-07-16T04:06:25.959Z,990.94
2018-07-16T04:07:25.952Z,990.94
2018-07-16T04:08:25.948Z,990.93
2018-07-16T04:09:46.948Z,990.95
2018-07-16T04:10:25.942Z,990.94
2018-07-16T04:11:25.929Z,990.94
2018-07-16T04:12:25.924Z,990.98
2018-07-16T04:13:25.919Z,990.98
2018-07-16T04:14:25.912Z,990.98
2018-07-16T04:15:46.911Z,991.00
2018-07-16T04:16:25.900Z,991.01
2018-07-16T04:17:25.894Z,990.99
2018-07-16T04:18:25.888Z,991.02
2018-07-16T04:19:25.882Z,990.99
2018-07-16T04:20:25.875Z,991.01
2018-07-16T04:21:46.877Z,990.98
2018-07-16T04:22:25.864Z,991.00
2018-07-16T04:23:25.856Z,991.03
2018-07-16T04:24:25.852Z,991.00
2018-07-16T04:25:25.846Z,991.00
2018-07-16T04:26:25.839Z,990.97
2018-07-16T04:27:46.843Z,991.00
2018-07-16T04:28:25.832Z,990.99
2018-07-16T04:29:25.822Z,991.00
2018-07-16T04:30:25.816Z,991.01
2018-07-16T04:31:25.810Z,990.97
2018-07-16T04:32:25.803Z,990.98
2018-07-16T04:33:46.806Z,990.93
2018-07-16T04:34:25.799Z,990.97
2018-07-16T04:35:25.792Z,990.97
2018-07-16T04:36:25.781Z,990.96
2018-07-16T04:37:25.778Z,991.02
2018-07-16T04:38:25.769Z,991.06
2018-07-16T04:39:46.841Z,991.02
2018-07-16T04:40:25.756Z,991.01
2018-07-16T04:41:25.750Z,991.01
2018-07-16T04:42:25.745Z,991.02
2018-07-16T04:43:25.734Z,991.02
2018-07-16T04:44:25.731Z,991.03
2018-07-16T04:45:46.733Z,990.99
2018-07-16T04:46:25.719Z,990.99
2018-07-16T04:47:25.711Z,991.00
2018-07-16T04:48:25.709Z,990.97
2018-07-16T04:49:25.702Z,990.98
2018-07-16T04:50:25.696Z,990.95
2018-07-16T04:51:46.694Z,990.96
2018-07-16T04:52:25.681Z,990.96
2018-07-16T04:53:25.676Z,990.92
2018-07-16T04:54:25.670Z,990.93
2018-07-16T04:55:25.664Z,990.94
2018-07-16T04:56:25.658Z,990.94
2018-07-16T04:57:46.661Z,990.96
2018-07-16T04:58:25.646Z,990.94
2018-07-16T04:59:25.640Z,990.96
2018-07-16T05:00:25.633Z,990.95
2018-07-16T05:01:25.627Z,990.92
2018-07-16T05:02:25.623Z,990.92
2018-07-16T05:03:46.622Z,990.94
2018-07-16T05:04:25.611Z,990.93
2018-07-16T05:05:25.602Z,990.96
2018-07-16T05:06:25.598Z,990.92
2018-07-16T05:07:25.591Z,990.90
2018-07-16T05:08:25.587Z,990.92
2018-07-16T05:09:46.587Z,990.91
2018-07-16T05:10:25.573Z,990.91
2018-07-16T05:11:25.569Z,990.94
2018-07-16T05:12:25.560Z,990.90
2018-07-16T05:13:25.556Z,990.88
2018-07-16T05:14:25.549Z,990.88
2018-07-16T05:15:46.547Z,990.87
2018-07-16T05:16:25.536Z,990.89
2018-07-16T05:17:25.531Z,990.87
2018-07-16T05:18:25.601Z,990.86
2018-07-16T05:19:25.549Z,990.90
2018-07-16T05:20:25.549Z,990.90
2018-07-16T05:21:46.550Z,990.92
2018-07-16T05:22:25.535Z,990.95
2018-07-16T05:23:25.494Z,990.97
2018-07-16T05:24:25.525Z,990.97
2018-07-16T05:25:25.482Z,990.96
2018-07-16T05:26:25.492Z,991.00
2018-07-16T05:27:46.476Z,991.01
2018-07-16T05:28:25.465Z,990.99
2018-07-16T05:29:25.458Z,991.02
2018-07-16T05:30:25.476Z,990.95
2018-07-16T05:31:25.482Z,990.98
2018-07-16T05:32:25.662Z,990.99
2018-07-16T05:33:46.441Z,991.00
2018-07-16T05:34:25.461Z,990.97
2018-07-16T05:35:25.424Z,990.99
2018-07-16T05:36:25.451Z,991.01
2018-07-16T05:37:25.412Z,991.00
2018-07-16T05:38:25.423Z,991.03
2018-07-16T05:39:46.404Z,991.03
2018-07-16T05:40:25.398Z,991.04
2018-07-16T05:41:25.390Z,991.02
2018-07-16T05:42:25.381Z,990.99
2018-07-16T05:43:25.371Z,991.03
2018-07-16T05:44:25.369Z,991.02
2018-07-16T05:45:46.368Z,991.03
2018-07-16T05:46:25.357Z,991.03
2018-07-16T05:47:25.349Z,991.04
2018-07-16T05:48:25.345Z,991.00
2018-07-16T05:49:25.374Z,991.02
2018-07-16T05:50:25.332Z,990.96
2018-07-16T05:51:46.332Z,990.99
2018-07-16T05:52:25.322Z,990.98
2018-07-16T05:53:25.314Z,991.00
2018-07-16T05:54:25.310Z,990.95
2018-07-16T05:55:25.302Z,990.98
2018-07-16T05:56:25.295Z,991.03
2018-07-16T05:57:46.299Z,990.97
2018-07-16T05:58:25.284Z,990.99
2018-07-16T05:59:25.277Z,990.99
2018-07-16T06:00:25.278Z,991.02
2018-07-16T06:01:25.265Z,990.96
2018-07-16T06:02:25.261Z,991.05
2018-07-16T06:03:46.259Z,991.06
2018-07-16T06:04:25.247Z,991.05
2018-07-16T06:05:25.244Z,991.10
2018-07-16T06:06:25.238Z,991.09
2018-07-16T06:07:25.229Z,991.12
2018-07-16T06:08:25.223Z,991.09
2018-07-16T06:09:46.226Z,991.13
2018-07-16T06:10:25.210Z,991.17
2018-07-16T06:11:25.205Z,991.13
2018-07-16T06:12:25.199Z,991.14
2018-07-16T06:13:25.196Z,991.11
2018-07-16T06:14:25.246Z,991.14
2018-07-16T06:15:46.187Z,991.15
2018-07-16T06:16:25.175Z,991.15
2018-07-16T06:17:25.170Z,991.14
2018-07-16T06:18:25.164Z,991.16
2018-07-16T06:19:25.156Z,991.19
2018-07-16T06:20:25.151Z,991.17
2018-07-16T06:21:46.150Z,991.16
2018-07-16T06:22:25.140Z,991.18
2018-07-16T06:23:25.135Z,991.16
2018-07-16T06:24:25.138Z,991.18
2018-07-16T06:25:25.122Z,991.20
2018-07-16T06:26:25.116Z,991.16
2018-07-16T06:27:46.116Z,991.18
2018-07-16T06:28:25.104Z,991.18
2018-07-16T06:29:25.098Z,991.21
2018-07-16T06:30:25.097Z,991.20
2018-07-16T06:31:25.085Z,991.17
2018-07-16T06:32:25.106Z,991.19
2018-07-16T06:33:46.085Z,991.18
2018-07-16T06:34:25.069Z,991.18
2018-07-16T06:35:25.068Z,991.21
2018-07-16T06:36:25.057Z,991.14
2018-07-16T06:37:25.051Z,991.18
2018-07-16T06:38:25.044Z,991.24
2018-07-16T06:39:46.151Z,991.16
2018-07-16T06:40:25.060Z,991.19
2018-07-16T06:41:25.442Z,991.16
2018-07-16T06:42:25.022Z,991.17
2018-07-16T06:43:25.015Z,991.14
2018-07-16T06:44:25.010Z,991.14
2018-07-16T06:45:46.012Z,991.17
2018-07-16T06:46:24.996Z,991.21
2018-07-16T06:47:24.995Z,991.12
2018-07-16T06:48:24.986Z,991.18
2018-07-16T06:49:24.984Z,991.16
2018-07-16T06:50:24.974Z,991.13
2018-07-16T06:51:45.974Z,991.14
2018-07-16T06:52:24.962Z,991.11
2018-07-16T06:53:24.957Z,991.11
2018-07-16T06:54:24.951Z,991.13
2018-07-16T06:55:24.954Z,991.13
2018-07-16T06:56:24.938Z,991.15
2018-07-16T06:57:45.941Z,991.14
2018-07-16T06:58:24.928Z,991.17
2018-07-16T06:59:24.925Z,991.21
2018-07-16T07:00:24.918Z,991.25
2018-07-16T07:01:24.910Z,991.19
2018-07-16T07:02:25.023Z,991.23
2018-07-16T07:03:45.905Z,991.24
2018-07-16T07:04:24.893Z,991.22
2018-07-16T07:05:24.891Z,991.23
2018-07-16T07:06:24.882Z,991.21
2018-07-16T07:07:24.876Z,991.24
2018-07-16T07:08:24.870Z,991.24
2018-07-16T07:09:45.927Z,991.23
2018-07-16T07:10:24.860Z,991.22
2018-07-16T07:11:24.854Z,991.26
2018-07-16T07:12:24.943Z,991.29
2018-07-16T07:13:24.881Z,991.27
2018-07-16T07:14:24.837Z,991.30
2018-07-16T07:15:45.838Z,991.28
2018-07-16T07:16:24.824Z,991.27
2018-07-16T07:17:24.820Z,991.32
2018-07-16T07:18:24.816Z,991.26
2018-07-16T07:19:24.809Z,991.25
2018-07-16T07:20:24.853Z,991.23
2018-07-16T07:21:45.805Z,991.21
2018-07-16T07:22:24.792Z,991.20
2018-07-16T07:23:24.785Z,991.23
2018-07-16T07:24:24.831Z,991.22
2018-07-16T07:25:24.864Z,991.23
2018-07-16T07:26:24.768Z,991.16
2018-07-16T07:27:45.789Z,991.19
2018-07-16T07:28:24.757Z,991.18
2018-07-16T07:29:24.752Z,991.22
2018-07-16T07:30:24.747Z,991.18
2018-07-16T07:31:24.750Z,991.17
2018-07-16T07:32:24.735Z,991.20
2018-07-16T07:33:45.738Z,991.20
2018-07-16T07:34:24.725Z,991.20
2018-07-16T07:35:24.745Z,991.21
2018-07-16T07:36:24.713Z,991.21
2018-07-16T07:37:24.707Z,991.29
2018-07-16T07:38:24.703Z,991.21
2018-07-16T07:39:45.703Z,991.24
2018-07-16T07:40:24.692Z,991.27
2018-07-16T07:41:24.685Z,991.25
2018-07-16T07:42:24.684Z,991.32
2018-07-16T07:43:24.674Z,991.28
2018-07-16T07:44:24.668Z,991.32
2018-07-16T07:45:45.671Z,991.28
2018-07-16T07:46:24.655Z,991.28
2018-07-16T07:47:24.652Z,991.28
2018-07-16T07:48:24.647Z,991.23
2018-07-16T07:49:24.642Z,991.26
2018-07-16T07:50:24.635Z,991.27
2018-07-16T07:51:45.636Z,991.33
2018-07-16T07:52:24.624Z,991.25
2018-07-16T07:53:24.620Z,991.28
2018-07-16T07:54:24.742Z,991.27
2018-07-16T07:55:24.908Z,991.27
2018-07-16T07:56:24.604Z,991.30
2018-07-16T07:57:45.603Z,991.28
2018-07-16T07:58:24.592Z,991.26
2018-07-16T07:59:24.587Z,991.29
2018-07-16T08:00:24.581Z,991.29
2018-07-16T08:01:24.576Z,991.27
2018-07-16T08:02:24.568Z,991.28
2018-07-16T08:03:45.572Z,991.27
2018-07-16T08:04:24.559Z,991.25
2018-07-16T08:05:24.554Z,991.27
2018-07-16T08:06:24.548Z,991.26
2018-07-16T08:07:24.541Z,991.23
2018-07-16T08:08:24.539Z,991.25
2018-07-16T08:09:45.542Z,991.23
2018-07-16T08:10:24.526Z,991.24
2018-07-16T08:11:24.520Z,991.24
2018-07-16T08:12:24.515Z,991.24
2018-07-16T08:13:24.511Z,991.24
2018-07-16T08:14:24.505Z,991.20
2018-07-16T08:15:45.505Z,991.21
2018-07-16T08:16:24.495Z,991.21
2018-07-16T08:17:24.489Z,991.20
2018-07-16T08:18:24.488Z,991.18
2018-07-16T08:19:24.480Z,991.24
2018-07-16T08:20:24.475Z,991.20
2018-07-16T08:21:45.474Z,991.20
2018-07-16T08:22:24.469Z,991.21
2018-07-16T08:23:24.457Z,991.25
2018-07-16T08:24:24.453Z,991.21
2018-07-16T08:25:24.450Z,991.25
2018-07-16T08:26:24.441Z,991.23
2018-07-16T08:27:45.442Z,991.23
2018-07-16T08:28:24.437Z,991.28
2018-07-16T08:29:24.428Z,991.20
2018-07-16T08:30:24.421Z,991.21
2018-07-16T08:31:24.415Z,991.24
2018-07-16T08:32:24.414Z,991.24
2018-07-16T08:33:45.498Z,991.22
2018-07-16T08:34:24.399Z,991.25
2018-07-16T08:35:24.394Z,991.28
2018-07-16T08:36:24.393Z,991.26
2018-07-16T08:37:24.384Z,991.26
2018-07-16T08:38:24.379Z,991.26
2018-07-16T08:39:45.380Z,991.30
2018-07-16T08:40:24.369Z,991.30
2018-07-16T08:41:24.363Z,991.30
2018-07-16T08:42:24.358Z,991.25
2018-07-16T08:43:24.353Z,991.21
2018-07-16T08:44:24.349Z,991.29
2018-07-16T08:45:45.351Z,991.27
2018-07-16T08:46:24.398Z,991.27
2018-07-16T08:47:24.333Z,991.25
2018-07-16T08:48:24.329Z,991.24
2018-07-16T08:49:24.324Z,991.25
2018-07-16T08:50:24.320Z,991.22
2018-07-16T08:51:45.318Z,991.22
2018-07-16T08:52:24.308Z,991.20
2018-07-16T08:53:24.302Z,991.22
2018-07-16T08:54:24.297Z,991.22
2018-07-16T08:55:24.293Z,991.16
2018-07-16T08:56:24.294Z,991.17
2018-07-16T08:57:45.290Z,991.19
2018-07-16T08:58:24.279Z,991.14
2018-07-16T08:59:24.272Z,991.17
2018-07-16T09:00:24.267Z,991.15
2018-07-16T09:01:24.265Z,991.14
2018-07-16T09:02:24.255Z,991.16
2018-07-16T09:03:45.257Z,991.17
2018-07-16T09:04:24.246Z,991.18
2018-07-16T09:05:24.241Z,991.13
2018-07-16T09:06:24.237Z,991.12
2018-07-16T09:07:24.230Z,991.13
2018-07-16T09:08:24.230Z,991.14
2018-07-16T09:09:45.231Z,991.13
2018-07-16T09:10:24.216Z,991.11
2018-07-16T09:11:24.232Z,991.10
2018-07-16T09:12:24.207Z,991.12
2018-07-16T09:13:24.317Z,991.09
2018-07-16T09:14:24.199Z,991.12
2018-07-16T09:15:45.196Z,991.08
2018-07-16T09:16:24.188Z,991.09
2018-07-16T09:17:24.182Z,991.14
2018-07-16T09:18:24.177Z,991.07
2018-07-16T09:19:24.172Z,991.07
2018-07-16T09:20:24.167Z,991.10
2018-07-16T09:21:45.169Z,991.13
2018-07-16T09:22:24.157Z,991.10
2018-07-16T09:23:24.153Z,991.13
2018-07-16T09:24:24.147Z,991.11
2018-07-16T09:25:24.171Z,991.12
2018-07-16T09:26:24.137Z,991.10
2018-07-16T09:27:45.139Z,991.08
2018-07-16T09:28:24.130Z,991.09
2018-07-16T09:29:24.124Z,991.04
2018-07-16T09:30:24.118Z,991.04
2018-07-16T09:31:24.113Z,991.06
2018-07-16T09:32:24.108Z,991.07
2018-07-16T09:33:45.114Z,991.02
2018-07-16T09:34:24.111Z,991.02
2018-07-16T09:35:24.095Z,990.99
2018-07-16T09:36:24.095Z,990.95
2018-07-16T09:37:24.087Z,990.95
2018-07-16T09:38:24.082Z,990.95
2018-07-16T09:39:45.083Z,990.89
2018-07-16T09:40:24.072Z,990.89
2018-07-16T09:41:24.067Z,990.84
2018-07-16T09:42:24.107Z,990.82
2018-07-16T09:43:24.057Z,990.85
2018-07-16T09:44:24.087Z,990.80
2018-07-16T09:45:45.063Z,990.80
2018-07-16T09:46:24.044Z,990.80
2018-07-16T09:47:24.040Z,990.79
2018-07-16T09:48:24.034Z,990.78
2018-07-16T09:49:24.031Z,990.78
2018-07-16T09:50:24.026Z,990.76
2018-07-16T09:51:45.027Z,990.76
2018-07-16T09:52:24.086Z,990.78
2018-07-16T09:53:24.012Z,990.75
2018-07-16T09:54:24.008Z,990.74
2018-07-16T09:55:24.003Z,990.76
2018-07-16T09:56:24.020Z,990.73
2018-07-16T09:57:45.002Z,990.75
2018-07-16T09:58:23.997Z,990.72
2018-07-16T09:59:23.984Z,990.68
2018-07-16T10:00:23.982Z,990.71
2018-07-16T10:01:23.975Z,990.67
2018-07-16T10:02:23.970Z,990.66
2018-07-16T10:03:44.973Z,990.64
2018-07-16T10:04:23.962Z,990.63
2018-07-16T10:05:23.958Z,990.65
2018-07-16T10:06:23.953Z,990.57
2018-07-16T10:07:23.952Z,990.59
2018-07-16T10:08:23.948Z,990.59
2018-07-16T10:09:44.956Z,990.56
2018-07-16T10:10:23.936Z,990.51
2018-07-16T10:11:23.931Z,990.52
2018-07-16T10:12:23.925Z,990.47
2018-07-16T10:13:23.923Z,990.45
2018-07-16T10:14:23.922Z,990.46
2018-07-16T10:15:44.920Z,990.42
2018-07-16T10:16:23.908Z,990.40
2018-07-16T10:17:23.904Z,990.41
2018-07-16T10:18:23.898Z,990.37
2018-07-16T10:19:23.897Z,990.39
2018-07-16T10:20:23.901Z,990.40
2018-07-16T10:21:44.893Z,990.35
2018-07-16T10:22:23.881Z,990.38
2018-07-16T10:23:23.877Z,990.37
2018-07-16T10:24:23.948Z,990.35
2018-07-16T10:25:23.869Z,990.36
2018-07-16T10:26:23.864Z,990.30
2018-07-16T10:27:44.868Z,990.32
2018-07-16T10:28:23.855Z,990.29
2018-07-16T10:29:23.858Z,990.32
2018-07-16T10:30:23.847Z,990.33
2018-07-16T10:31:23.842Z,990.34
2018-07-16T10:32:23.839Z,990.33
2018-07-16T10:33:44.862Z,990.37
2018-07-16T10:34:23.833Z,990.38
2018-07-16T10:35:23.869Z,990.31
2018-07-16T10:36:23.824Z,990.30
2018-07-16T10:37:23.817Z,990.30
2018-07-16T10:38:23.819Z,990.27
2018-07-16T10:39:44.816Z,990.30
2018-07-16T10:40:23.804Z,990.28
2018-07-16T10:41:23.799Z,990.26
2018-07-16T10:42:23.796Z,990.24
2018-07-16T10:43:23.790Z,990.25
2018-07-16T10:44:23.787Z,990.22
2018-07-16T10:45:44.790Z,990.24
2018-07-16T10:46:24.087Z,990.23
2018-07-16T10:47:23.774Z,990.21
2018-07-16T10:48:23.770Z,990.19
2018-07-16T10:49:23.765Z,990.17
2018-07-16T10:50:23.765Z,990.18
2018-07-16T10:51:44.761Z,990.20
2018-07-16T10:52:23.752Z,990.21
2018-07-16T10:53:23.749Z,990.20
2018-07-16T10:54:23.744Z,990.23
2018-07-16T10:55:23.873Z,990.18
2018-07-16T10:56:23.749Z,990.19
2018-07-16T10:57:44.739Z,990.17
2018-07-16T10:58:23.783Z,990.15
2018-07-16T10:59:23.723Z,990.17
2018-07-16T11:00:23.724Z,990.16
2018-07-16T11:01:23.714Z,990.18
2018-07-16T11:02:23.710Z,990.16
2018-07-16T11:03:44.767Z,990.14
2018-07-16T11:04:23.703Z,990.12
2018-07-16T11:05:23.787Z,990.07
2018-07-16T11:06:23.709Z,990.09
2018-07-16T11:07:23.689Z,990.10
2018-07-16T11:08:23.687Z,990.07
2018-07-16T11:09:44.689Z,990.11
2018-07-16T11:10:23.678Z,990.11
2018-07-16T11:11:23.672Z,990.11
2018-07-16T11:12:23.669Z,990.08
2018-07-16T11:13:23.665Z,990.09
2018-07-16T11:14:23.661Z,990.12
2018-07-16T11:15:44.663Z,990.11
2018-07-16T11:16:23.650Z,990.06
2018-07-16T11:17:23.648Z,990.06
2018-07-16T11:18:23.644Z,990.06
2018-07-16T11:19:23.638Z,990.07
2018-07-16T11:20:23.635Z,990.13
2018-07-16T11:21:44.640Z,990.06
2018-07-16T11:22:23.627Z,990.04
2018-07-16T11:23:23.624Z,990.04
2018-07-16T11:24:23.624Z,990.02
2018-07-16T11:25:23.617Z,990.00
2018-07-16T11:26:23.610Z,990.00
2018-07-16T11:27:44.613Z,989.95
2018-07-16T11:28:23.606Z,990.01
2018-07-16T11:29:23.602Z,989.98
2018-07-16T11:30:23.596Z,990.00
2018-07-16T11:31:23.589Z,989.98
2018-07-16T11:32:23.585Z,990.02
2018-07-16T11:33:44.589Z,989.97
2018-07-16T11:34:23.601Z,989.96
2018-07-16T11:35:23.610Z,989.99
2018-07-16T11:36:23.569Z,989.97
2018-07-16T11:37:23.618Z,990.04
2018-07-16T11:38:23.562Z,989.96
2018-07-16T11:39:44.565Z,989.98
2018-07-16T11:40:23.568Z,989.94
2018-07-16T11:41:23.551Z,989.89
2018-07-16T11:42:23.546Z,989.89
2018-07-16T11:43:23.540Z,989.89
2018-07-16T11:44:23.541Z,989.87
2018-07-16T11:45:44.541Z,989.89
2018-07-16T11:46:23.530Z,989.85
2018-07-16T11:47:23.524Z,989.82
2018-07-16T11:48:23.520Z,989.85
2018-07-16T11:49:23.516Z,989.84
2018-07-16T11:50:23.518Z,989.82
2018-07-16T11:51:44.514Z,989.84
2018-07-16T11:52:23.504Z,989.82
2018-07-16T11:53:23.500Z,989.78
2018-07-16T11:54:23.499Z,989.75
2018-07-16T11:55:23.494Z,989.77
2018-07-16T11:56:23.488Z,989.80
2018-07-16T11:57:44.491Z,989.70
2018-07-16T11:58:23.478Z,989.75
2018-07-16T11:59:23.564Z,989.71
2018-07-16T12:00:23.472Z,989.68
2018-07-16T12:01:23.466Z,989.67
2018-07-16T12:02:23.462Z,989.71
2018-07-16T12:03:44.466Z,989.67
2018-07-16T12:04:23.456Z,989.60
2018-07-16T12:05:23.451Z,989.65
2018-07-16T12:06:23.449Z,989.65
2018-07-16T12:07:23.442Z,989.62
2018-07-16T12:08:23.440Z,989.62
2018-07-16T12:09:44.441Z,989.55
2018-07-16T12:10:23.429Z,989.54
2018-07-16T12:11:23.427Z,989.58
2018-07-16T12:12:23.600Z,989.56
2018-07-16T12:13:23.417Z,989.54
2018-07-16T12:14:23.412Z,989.50
2018-07-16T12:15:44.414Z,989.54
2018-07-16T12:16:23.406Z,989.52
2018-07-16T12:17:23.400Z,989.52
2018-07-16T12:18:23.404Z,989.47
2018-07-16T12:19:23.391Z,989.50
2018-07-16T12:20:23.394Z,989.50
2018-07-16T12:21:44.391Z,989.46
2018-07-16T12:22:23.385Z,989.48
2018-07-16T12:23:23.378Z,989.44
2018-07-16T12:24:23.370Z,989.46
2018-07-16T12:25:23.367Z,989.47
2018-07-16T12:26:23.364Z,989.39
2018-07-16T12:27:44.364Z,989.42
2018-07-16T12:28:23.362Z,989.38